General Aviation Weather

Text Reports

Enter one or more of the following location identifiers separated by a space:

Zip Code, Four-Character ICAO or Three-Character IATA airport codes.

METAR - Aviation Routine Weather Report
HEAT - Asyut,
Updated at 11:00 AM GMT on September 04, 2015 (1:00 PM EET):
METAR HEAT 041100Z 02018KT CAVOK 36/11 Q1012 NOSIG
TAF - Terminal Area Forecast
HEAT - Asyut,
Updated at 11:00 AM GMT on September 04, 2015 (1:00 PM EET):
TAF HEAT 041100Z 0412/0518 33014KT CAVOK=
Decoded:
ID: HEAT   Asyut, EG
REPORT TIME:  2 23: 0
VALID TIME: 3 September AT 00:00Z to 4 September AT 06:00Z.
INITIAL WX
   WINDS: 350 AT 12
   WEATHER: CAVOK
   COMMENTS: = 

PIREP - Pilot Weather Report
HEAT - Asyut,
Updated at 11:00 AM GMT on September 04, 2015 (1:00 PM EET):
No PIREP is currently available for this location.
AIRMET - Airmens Meteorological Information
HEAT - Asyut,
Updated at 11:00 AM GMT on September 04, 2015 (1:00 PM EET):
No AIRMET is currently available for this location.
SIGMET - Significant Meteorological Information
HEAT - Asyut,
Updated at 11:00 AM GMT on September 04, 2015 (1:00 PM EET):
No SIGMET is currently available for this location.
NOTAM - Notice to Airmen
HEAT - Asyut,
Updated at 11:00 AM GMT on September 04, 2015 (1:00 PM EET):
No NOTAM is currently available for this location.
Forecast Area
HEAT - Asyut,
Updated at 11:00 AM GMT on September 04, 2015 (1:00 PM EET):
No NOTAM is currently available for this location.
Aviation Weather Maps